Metar Aviation säätiedot     LIEE Cagliari Elmas Airport
Lämpötila
9°C Lämpötila
5°C Kastepiste
76% Kosteus



Tuuli
10 KM/T
6 MPH
3 M/S
5 KTS



310°
PL
Nykyiset olosuhteet

Puolipilvistä Puolipilvistä
Paine 1022.92 (hPa) - 30.21 (inHg)
Näkyvyys 6.2 (maili) - 10 (km)
Lentokenttä
Lentokentän koodi LIEE

Sijainti: Cagliari Elmas Airport
Etäisyys: 14 (km)

Metar:
LIEE 301650Z 31005KT 9999 FEW040 09/05 Q1023

Aika: 30-11-2021 17:50 CET